Moxee, Washington
Current Conditions -  °F | °C
As of 4:09 PM on Friday 21 Nov 2014 (Local Time) from KYKM Reporting Station
Freezing Rain Freezing Rain  
Wind Chill: 33°   Ceiling: 900
Heat Index: 33°   Visibility: 1.5mi
Dew Point: 30°   Wind: 3mph
Humidity: 89%   Direction: 60°ENE
Pressure: 29.62"   Gusts: NA
Location:  46.56°N, 120.4°W
Report Text: KYKM 220009Z 06003KT 1 1/2SM -FZRA BR OVC009 01/M01 A2962 RMK AO2 CIG 004V011 P0001 I1000 T00061011
Loading
Personal Weather Stations






























Interactive Weather Map New forecast layout! Learn more

10-Day Weather Forecast

Advertisements
Track Severe Weather on mobile